sensor_id;sensor_type;location;lat;lon;timestamp;pressure;altitude;pressure_sealevel;temperature;humidity
64139;BME280;50435;43.700;-79.318;2023-04-25T00:00:20;100639.05;;;8.50;46.11
64139;BME280;50435;43.700;-79.318;2023-04-25T00:02:48;100639.39;;;8.63;45.76
64139;BME280;50435;43.700;-79.318;2023-04-25T00:05:15;100640.07;;;8.44;46.25
64139;BME280;50435;43.700;-79.318;2023-04-25T00:07:43;100641.64;;;8.37;46.44
64139;BME280;50435;43.700;-79.318;2023-04-25T00:10:10;100648.08;;;8.28;46.68
64139;BME280;50435;43.700;-79.318;2023-04-25T00:12:38;100651.15;;;8.93;46.48
64139;BME280;50435;43.700;-79.318;2023-04-25T00:15:06;100654.35;;;8.48;46.12
64139;BME280;50435;43.700;-79.318;2023-04-25T00:17:34;100654.43;;;9.06;45.65
64139;BME280;50435;43.700;-79.318;2023-04-25T00:20:03;100659.74;;;8.32;45.39
64139;BME280;50435;43.700;-79.318;2023-04-25T00:22:30;100661.39;;;8.38;45.53
64139;BME280;50435;43.700;-79.318;2023-04-25T00:24:58;100661.30;;;7.22;45.68
64139;BME280;50435;43.700;-79.318;2023-04-25T00:27:26;100670.04;;;8.68;45.60
64139;BME280;50435;43.700;-79.318;2023-04-25T00:29:54;100665.01;;;7.29;45.73
64139;BME280;50435;43.700;-79.318;2023-04-25T00:32:22;100671.62;;;8.50;45.64
64139;BME280;50435;43.700;-79.318;2023-04-25T00:34:50;100674.68;;;7.77;45.52
64139;BME280;50435;43.700;-79.318;2023-04-25T00:37:17;100679.34;;;8.06;45.89
64139;BME280;50435;43.700;-79.318;2023-04-25T00:39:44;100681.85;;;8.36;45.91
64139;BME280;50435;43.700;-79.318;2023-04-25T00:42:12;100685.58;;;8.10;45.70
64139;BME280;50435;43.700;-79.318;2023-04-25T00:44:39;100685.59;;;8.43;45.97
64139;BME280;50435;43.700;-79.318;2023-04-25T00:47:08;100690.28;;;7.81;46.27
64139;BME280;50435;43.700;-79.318;2023-04-25T00:49:35;100693.02;;;8.01;45.68
64139;BME280;50435;43.700;-79.318;2023-04-25T00:52:03;100692.56;;;7.33;46.08
64139;BME280;50435;43.700;-79.318;2023-04-25T00:54:30;100695.89;;;8.21;45.99
64139;BME280;50435;43.700;-79.318;2023-04-25T00:56:59;100695.76;;;6.48;46.18
64139;BME280;50435;43.700;-79.318;2023-04-25T00:59:28;100697.68;;;8.00;46.15
64139;BME280;50435;43.700;-79.318;2023-04-25T01:01:55;100703.64;;;7.49;46.52
64139;BME280;50435;43.700;-79.318;2023-04-25T01:04:23;100703.88;;;7.89;46.44
64139;BME280;50435;43.700;-79.318;2023-04-25T01:06:51;100702.18;;;7.01;46.43
64139;BME280;50435;43.700;-79.318;2023-04-25T01:09:20;100707.82;;;7.81;46.72
64139;BME280;50435;43.700;-79.318;2023-04-25T01:11:47;100709.99;;;7.67;46.91
64139;BME280;50435;43.700;-79.318;2023-04-25T01:14:15;100712.36;;;7.35;47.13
64139;BME280;50435;43.700;-79.318;2023-04-25T01:16:44;100713.86;;;7.63;46.97
64139;BME280;50435;43.700;-79.318;2023-04-25T01:19:11;100717.06;;;7.34;47.02
64139;BME280;50435;43.700;-79.318;2023-04-25T01:21:43;100716.46;;;7.46;47.20
64139;BME280;50435;43.700;-79.318;2023-04-25T01:24:11;100717.99;;;7.36;46.98
64139;BME280;50435;43.700;-79.318;2023-04-25T01:26:40;100719.54;;;7.55;47.08
64139;BME280;50435;43.700;-79.318;2023-04-25T01:29:08;100723.38;;;7.23;47.12
64139;BME280;50435;43.700;-79.318;2023-04-25T01:31:36;100725.53;;;7.50;47.04
64139;BME280;50435;43.700;-79.318;2023-04-25T01:34:04;100727.82;;;6.86;47.34
64139;BME280;50435;43.700;-79.318;2023-04-25T01:36:31;100729.60;;;7.38;47.16
64139;BME280;50435;43.700;-79.318;2023-04-25T01:38:59;100727.68;;;6.31;47.48
64139;BME280;50435;43.700;-79.318;2023-04-25T01:41:27;100724.60;;;7.54;47.31
64139;BME280;50435;43.700;-79.318;2023-04-25T01:43:55;100725.89;;;6.43;47.28
64139;BME280;50435;43.700;-79.318;2023-04-25T01:46:23;100721.52;;;7.29;47.32
64139;BME280;50435;43.700;-79.318;2023-04-25T01:48:51;100722.65;;;6.29;47.44
64139;BME280;50435;43.700;-79.318;2023-04-25T01:51:18;100725.14;;;7.21;47.52
64139;BME280;50435;43.700;-79.318;2023-04-25T01:53:46;100723.65;;;7.18;47.47
64139;BME280;50435;43.700;-79.318;2023-04-25T01:56:14;100722.30;;;7.23;47.31
64139;BME280;50435;43.700;-79.318;2023-04-25T01:58:42;100721.59;;;7.40;47.49
64139;BME280;50435;43.700;-79.318;2023-04-25T02:01:09;100720.62;;;6.91;47.48
64139;BME280;50435;43.700;-79.318;2023-04-25T02:03:37;100723.49;;;7.10;47.50
64139;BME280;50435;43.700;-79.318;2023-04-25T02:06:05;100721.20;;;7.05;47.62
64139;BME280;50435;43.700;-79.318;2023-04-25T02:08:32;100724.76;;;7.19;47.78
64139;BME280;50435;43.700;-79.318;2023-04-25T02:11:00;100723.57;;;6.16;47.56
64139;BME280;50435;43.700;-79.318;2023-04-25T02:13:28;100724.05;;;7.28;47.55
64139;BME280;50435;43.700;-79.318;2023-04-25T02:15:55;100723.27;;;5.79;47.62
64139;BME280;50435;43.700;-79.318;2023-04-25T02:18:22;100726.41;;;6.75;47.68
64139;BME280;50435;43.700;-79.318;2023-04-25T02:20:49;100725.74;;;6.80;47.60
64139;BME280;50435;43.700;-79.318;2023-04-25T02:23:16;100726.49;;;7.07;47.87
64139;BME280;50435;43.700;-79.318;2023-04-25T02:25:43;100724.31;;;7.08;47.93
64139;BME280;50435;43.700;-79.318;2023-04-25T02:28:11;100723.38;;;6.91;47.73
64139;BME280;50435;43.700;-79.318;2023-04-25T02:30:39;100723.44;;;7.21;47.06
64139;BME280;50435;43.700;-79.318;2023-04-25T02:33:06;100726.43;;;6.40;47.76
64139;BME280;50435;43.700;-79.318;2023-04-25T02:35:33;100721.66;;;7.17;47.50
64139;BME280;50435;43.700;-79.318;2023-04-25T02:38:00;100727.28;;;6.18;48.14
64139;BME280;50435;43.700;-79.318;2023-04-25T02:40:28;100727.49;;;6.79;47.83
64139;BME280;50435;43.700;-79.318;2023-04-25T02:42:55;100727.55;;;5.85;47.78
64139;BME280;50435;43.700;-79.318;2023-04-25T02:45:22;100725.69;;;6.71;47.94
64139;BME280;50435;43.700;-79.318;2023-04-25T02:47:50;100725.01;;;6.22;47.95
64139;BME280;50435;43.700;-79.318;2023-04-25T02:50:17;100722.70;;;6.71;48.03
64139;BME280;50435;43.700;-79.318;2023-04-25T02:52:45;100725.27;;;6.91;47.99
64139;BME280;50435;43.700;-79.318;2023-04-25T02:55:13;100726.11;;;6.58;48.23
64139;BME280;50435;43.700;-79.318;2023-04-25T02:57:41;100723.65;;;7.15;47.84
64139;BME280;50435;43.700;-79.318;2023-04-25T03:00:09;100726.30;;;5.95;48.37
64139;BME280;50435;43.700;-79.318;2023-04-25T03:02:36;100725.51;;;7.21;47.78
64139;BME280;50435;43.700;-79.318;2023-04-25T03:05:04;100722.66;;;6.08;48.00
64139;BME280;50435;43.700;-79.318;2023-04-25T03:07:32;100725.72;;;6.86;48.37
64139;BME280;50435;43.700;-79.318;2023-04-25T03:09:59;100724.47;;;4.83;48.70
64139;BME280;50435;43.700;-79.318;2023-04-25T03:12:26;100722.76;;;6.64;48.26
64139;BME280;50435;43.700;-79.318;2023-04-25T03:14:53;100722.94;;;5.40;48.51
64139;BME280;50435;43.700;-79.318;2023-04-25T03:17:20;100722.58;;;6.65;48.33
64139;BME280;50435;43.700;-79.318;2023-04-25T03:19:48;100724.99;;;6.58;48.35
64139;BME280;50435;43.700;-79.318;2023-04-25T03:22:15;100727.99;;;6.52;48.52
64139;BME280;50435;43.700;-79.318;2023-04-25T03:24:42;100732.40;;;6.48;48.52
64139;BME280;50435;43.700;-79.318;2023-04-25T03:27:09;100726.68;;;6.40;48.14
64139;BME280;50435;43.700;-79.318;2023-04-25T03:29:37;100724.83;;;6.60;48.17
64139;BME280;50435;43.700;-79.318;2023-04-25T03:32:05;100722.79;;;6.25;48.38
64139;BME280;50435;43.700;-79.318;2023-04-25T03:34:32;100725.31;;;6.26;48.37
64139;BME280;50435;43.700;-79.318;2023-04-25T03:36:59;100725.61;;;5.54;48.28
64139;BME280;50435;43.700;-79.318;2023-04-25T03:39:27;100722.21;;;6.87;47.98
64139;BME280;50435;43.700;-79.318;2023-04-25T03:41:54;100723.87;;;5.74;47.80
64139;BME280;50435;43.700;-79.318;2023-04-25T03:44:22;100719.56;;;6.64;47.77
64139;BME280;50435;43.700;-79.318;2023-04-25T03:46:49;100717.63;;;6.40;47.76
64139;BME280;50435;43.700;-79.318;2023-04-25T03:49:16;100719.38;;;6.44;47.68
64139;BME280;50435;43.700;-79.318;2023-04-25T03:51:44;100718.63;;;6.83;47.85
64139;BME280;50435;43.700;-79.318;2023-04-25T03:54:11;100720.24;;;6.67;47.65
64139;BME280;50435;43.700;-79.318;2023-04-25T03:56:38;100722.77;;;7.00;47.63
64139;BME280;50435;43.700;-79.318;2023-04-25T03:59:06;100724.31;;;6.47;47.62
64139;BME280;50435;43.700;-79.318;2023-04-25T04:01:33;100722.75;;;6.74;47.43
64139;BME280;50435;43.700;-79.318;2023-04-25T04:04:01;100724.91;;;5.74;48.00
64139;BME280;50435;43.700;-79.318;2023-04-25T04:06:29;100723.17;;;6.80;47.98
64139;BME280;50435;43.700;-79.318;2023-04-25T04:08:57;100725.11;;;5.38;47.91
64139;BME280;50435;43.700;-79.318;2023-04-25T04:11:24;100728.30;;;6.81;47.84
64139;BME280;50435;43.700;-79.318;2023-04-25T04:13:51;100726.73;;;5.83;47.88
64139;BME280;50435;43.700;-79.318;2023-04-25T04:16:18;100725.62;;;6.27;47.88
64139;BME280;50435;43.700;-79.318;2023-04-25T04:18:46;100726.91;;;6.70;47.98
64139;BME280;50435;43.700;-79.318;2023-04-25T04:21:14;100725.49;;;6.41;47.58
64139;BME280;50435;43.700;-79.318;2023-04-25T04:23:41;100731.52;;;6.71;47.92
64139;BME280;50435;43.700;-79.318;2023-04-25T04:26:09;100729.04;;;6.45;47.57
64139;BME280;50435;43.700;-79.318;2023-04-25T04:28:37;100733.22;;;6.78;47.71
64139;BME280;50435;43.700;-79.318;2023-04-25T04:31:04;100731.82;;;6.23;47.85
64139;BME280;50435;43.700;-79.318;2023-04-25T04:33:32;100731.73;;;6.83;47.63
64139;BME280;50435;43.700;-79.318;2023-04-25T04:35:59;100739.81;;;5.50;47.84
64139;BME280;50435;43.700;-79.318;2023-04-25T04:38:26;100739.46;;;6.67;47.99
64139;BME280;50435;43.700;-79.318;2023-04-25T04:40:53;100737.15;;;5.76;47.77
64139;BME280;50435;43.700;-79.318;2023-04-25T04:43:20;100738.09;;;6.75;47.67
64139;BME280;50435;43.700;-79.318;2023-04-25T04:45:48;100737.07;;;6.10;48.10
64139;BME280;50435;43.700;-79.318;2023-04-25T04:48:16;100735.92;;;6.81;47.55
64139;BME280;50435;43.700;-79.318;2023-04-25T04:50:44;100735.55;;;6.64;47.96
64139;BME280;50435;43.700;-79.318;2023-04-25T04:53:12;100736.69;;;6.28;47.60
64139;BME280;50435;43.700;-79.318;2023-04-25T04:55:39;100728.29;;;6.81;47.45
64139;BME280;50435;43.700;-79.318;2023-04-25T04:58:06;100730.34;;;6.19;47.58
64139;BME280;50435;43.700;-79.318;2023-04-25T05:00:33;100731.41;;;6.61;47.76
64139;BME280;50435;43.700;-79.318;2023-04-25T05:03:01;100726.45;;;5.86;47.86
64139;BME280;50435;43.700;-79.318;2023-04-25T05:05:28;100724.48;;;6.33;47.79
64139;BME280;50435;43.700;-79.318;2023-04-25T05:07:56;100721.16;;;5.25;47.62
64139;BME280;50435;43.700;-79.318;2023-04-25T05:10:23;100725.47;;;6.69;47.58
64139;BME280;50435;43.700;-79.318;2023-04-25T05:12:50;100726.28;;;5.92;47.67
64139;BME280;50435;43.700;-79.318;2023-04-25T05:15:17;100722.84;;;6.25;47.85
64139;BME280;50435;43.700;-79.318;2023-04-25T05:17:45;100724.42;;;6.52;47.91
64139;BME280;50435;43.700;-79.318;2023-04-25T05:20:12;100715.62;;;6.65;47.57
64139;BME280;50435;43.700;-79.318;2023-04-25T05:22:40;100713.99;;;6.75;47.31
64139;BME280;50435;43.700;-79.318;2023-04-25T05:25:08;100711.60;;;6.24;47.42
64139;BME280;50435;43.700;-79.318;2023-04-25T05:27:35;100713.20;;;6.56;47.67
64139;BME280;50435;43.700;-79.318;2023-04-25T05:30:03;100712.16;;;6.22;47.46
64139;BME280;50435;43.700;-79.318;2023-04-25T05:32:31;100712.68;;;6.17;47.86
64139;BME280;50435;43.700;-79.318;2023-04-25T05:34:59;100711.51;;;5.18;48.01
64139;BME280;50435;43.700;-79.318;2023-04-25T05:37:26;100709.23;;;6.42;47.95
64139;BME280;50435;43.700;-79.318;2023-04-25T05:39:54;100708.93;;;5.15;48.22
64139;BME280;50435;43.700;-79.318;2023-04-25T05:42:22;100704.50;;;6.34;48.18
64139;BME280;50435;43.700;-79.318;2023-04-25T05:44:49;100702.81;;;5.96;47.86
64139;BME280;50435;43.700;-79.318;2023-04-25T05:47:16;100702.33;;;6.40;48.01
64139;BME280;50435;43.700;-79.318;2023-04-25T05:49:43;100700.65;;;6.24;48.26
64139;BME280;50435;43.700;-79.318;2023-04-25T05:52:10;100698.34;;;6.08;48.13
64139;BME280;50435;43.700;-79.318;2023-04-25T05:54:37;100699.38;;;6.37;48.01
64139;BME280;50435;43.700;-79.318;2023-04-25T05:57:05;100698.33;;;5.92;48.39
64139;BME280;50435;43.700;-79.318;2023-04-25T05:59:33;100694.23;;;6.16;48.49
64139;BME280;50435;43.700;-79.318;2023-04-25T06:02:00;100694.77;;;5.63;48.56
64139;BME280;50435;43.700;-79.318;2023-04-25T06:04:28;100689.26;;;6.10;48.46
64139;BME280;50435;43.700;-79.318;2023-04-25T06:06:55;100688.47;;;4.76;48.38
64139;BME280;50435;43.700;-79.318;2023-04-25T06:09:22;100683.44;;;6.29;48.62
64139;BME280;50435;43.700;-79.318;2023-04-25T06:11:50;100687.38;;;5.61;48.58
64139;BME280;50435;43.700;-79.318;2023-04-25T06:14:17;100687.06;;;6.19;48.29
64139;BME280;50435;43.700;-79.318;2023-04-25T06:16:44;100684.24;;;6.48;48.20
64139;BME280;50435;43.700;-79.318;2023-04-25T06:19:12;100679.92;;;5.94;48.35
64139;BME280;50435;43.700;-79.318;2023-04-25T06:21:39;100680.49;;;6.11;48.37
64139;BME280;50435;43.700;-79.318;2023-04-25T06:24:06;100678.07;;;5.63;48.40
64139;BME280;50435;43.700;-79.318;2023-04-25T06:26:33;100678.73;;;6.38;48.35
64139;BME280;50435;43.700;-79.318;2023-04-25T06:29:01;100679.67;;;4.77;48.28
64139;BME280;50435;43.700;-79.318;2023-04-25T06:31:28;100678.68;;;6.16;48.25
64139;BME280;50435;43.700;-79.318;2023-04-25T06:33:55;100679.39;;;4.75;48.31
64139;BME280;50435;43.700;-79.318;2023-04-25T06:36:22;100675.53;;;5.95;48.69
64139;BME280;50435;43.700;-79.318;2023-04-25T06:38:49;100677.59;;;5.49;48.63
64139;BME280;50435;43.700;-79.318;2023-04-25T06:41:16;100675.89;;;5.61;48.80
64139;BME280;50435;43.700;-79.318;2023-04-25T06:43:44;100674.19;;;6.19;48.48
64139;BME280;50435;43.700;-79.318;2023-04-25T06:46:12;100678.34;;;5.45;48.63
64139;BME280;50435;43.700;-79.318;2023-04-25T06:48:39;100678.28;;;6.18;48.60
64139;BME280;50435;43.700;-79.318;2023-04-25T06:51:06;100678.55;;;5.59;48.77
64139;BME280;50435;43.700;-79.318;2023-04-25T06:53:33;100678.70;;;6.19;48.67
64139;BME280;50435;43.700;-79.318;2023-04-25T06:56:00;100679.58;;;4.73;49.14
64139;BME280;50435;43.700;-79.318;2023-04-25T06:58:28;100678.49;;;5.92;48.67
64139;BME280;50435;43.700;-79.318;2023-04-25T07:00:55;100679.66;;;4.76;48.93
64139;BME280;50435;43.700;-79.318;2023-04-25T07:03:22;100680.91;;;5.83;48.92
64139;BME280;50435;43.700;-79.318;2023-04-25T07:05:50;100682.02;;;5.42;49.19
64139;BME280;50435;43.700;-79.318;2023-04-25T07:08:18;100678.29;;;5.72;49.09
64139;BME280;50435;43.700;-79.318;2023-04-25T07:10:45;100675.26;;;6.29;48.88
64139;BME280;50435;43.700;-79.318;2023-04-25T07:13:13;100679.08;;;5.63;49.09
64139;BME280;50435;43.700;-79.318;2023-04-25T07:15:40;100681.20;;;6.18;49.18
64139;BME280;50435;43.700;-79.318;2023-04-25T07:18:07;100683.87;;;5.49;48.93
64139;BME280;50435;43.700;-79.318;2023-04-25T07:20:34;100680.48;;;6.02;49.45
64139;BME280;50435;43.700;-79.318;2023-04-25T07:23:01;100679.75;;;5.26;49.05
64139;BME280;50435;43.700;-79.318;2023-04-25T07:25:28;100676.31;;;5.80;48.82
64139;BME280;50435;43.700;-79.318;2023-04-25T07:27:56;100679.80;;;4.55;48.89
64139;BME280;50435;43.700;-79.318;2023-04-25T07:30:24;100680.10;;;5.83;48.87
64139;BME280;50435;43.700;-79.318;2023-04-25T07:32:51;100682.76;;;4.97;49.02
64139;BME280;50435;43.700;-79.318;2023-04-25T07:35:18;100682.13;;;5.69;48.97
64139;BME280;50435;43.700;-79.318;2023-04-25T07:37:46;100683.11;;;5.60;49.14
64139;BME280;50435;43.700;-79.318;2023-04-25T07:40:13;100687.17;;;5.76;48.85
64139;BME280;50435;43.700;-79.318;2023-04-25T07:42:41;100684.28;;;6.08;49.26
64139;BME280;50435;43.700;-79.318;2023-04-25T07:45:09;100686.97;;;5.40;48.99
64139;BME280;50435;43.700;-79.318;2023-04-25T07:47:37;100690.13;;;5.91;48.86
64139;BME280;50435;43.700;-79.318;2023-04-25T07:50:05;100689.01;;;5.17;49.00
64139;BME280;50435;43.700;-79.318;2023-04-25T07:52:32;100690.29;;;6.11;49.07
64139;BME280;50435;43.700;-79.318;2023-04-25T07:54:59;100689.32;;;4.66;49.07
64139;BME280;50435;43.700;-79.318;2023-04-25T07:57:27;100692.20;;;5.81;48.68
64139;BME280;50435;43.700;-79.318;2023-04-25T07:59:54;100688.89;;;4.72;48.98
64139;BME280;50435;43.700;-79.318;2023-04-25T08:02:21;100688.23;;;5.68;48.87
64139;BME280;50435;43.700;-79.318;2023-04-25T08:04:48;100685.36;;;5.68;49.02
64139;BME280;50435;43.700;-79.318;2023-04-25T08:07:16;100688.44;;;5.89;48.94
64139;BME280;50435;43.700;-79.318;2023-04-25T08:09:43;100686.89;;;5.59;49.10
64139;BME280;50435;43.700;-79.318;2023-04-25T08:12:11;100687.57;;;5.54;49.25
64139;BME280;50435;43.700;-79.318;2023-04-25T08:14:38;100684.99;;;5.75;49.14
64139;BME280;50435;43.700;-79.318;2023-04-25T08:17:05;100686.56;;;5.95;49.29
64139;BME280;50435;43.700;-79.318;2023-04-25T08:19:33;100687.32;;;5.71;49.24
64139;BME280;50435;43.700;-79.318;2023-04-25T08:22:00;100685.38;;;4.54;49.28
64139;BME280;50435;43.700;-79.318;2023-04-25T08:24:27;100685.55;;;5.75;48.79
64139;BME280;50435;43.700;-79.318;2023-04-25T08:26:54;100685.51;;;4.78;48.30
64139;BME280;50435;43.700;-79.318;2023-04-25T08:29:22;100689.02;;;5.93;48.34
64139;BME280;50435;43.700;-79.318;2023-04-25T08:31:49;100689.71;;;5.50;48.62
64139;BME280;50435;43.700;-79.318;2023-04-25T08:34:16;100692.49;;;5.58;48.56
64139;BME280;50435;43.700;-79.318;2023-04-25T08:36:43;100692.69;;;5.85;48.37
64139;BME280;50435;43.700;-79.318;2023-04-25T08:39:11;100694.39;;;5.45;48.70
64139;BME280;50435;43.700;-79.318;2023-04-25T08:41:40;100687.90;;;5.87;48.86
64139;BME280;50435;43.700;-79.318;2023-04-25T08:44:10;100690.58;;;5.43;48.72
64139;BME280;50435;43.700;-79.318;2023-04-25T08:46:38;100688.68;;;5.53;49.13
64139;BME280;50435;43.700;-79.318;2023-04-25T08:49:07;100688.29;;;5.17;48.85
64139;BME280;50435;43.700;-79.318;2023-04-25T08:51:40;100692.36;;;6.11;48.87
64139;BME280;50435;43.700;-79.318;2023-04-25T08:54:13;100685.76;;;5.19;49.05
64139;BME280;50435;43.700;-79.318;2023-04-25T08:56:43;100680.34;;;5.97;49.12
64139;BME280;50435;43.700;-79.318;2023-04-25T08:59:11;100680.82;;;5.66;49.09
64139;BME280;50435;43.700;-79.318;2023-04-25T09:01:39;100681.86;;;5.79;49.54
64139;BME280;50435;43.700;-79.318;2023-04-25T09:04:07;100682.30;;;5.28;49.48
64139;BME280;50435;43.700;-79.318;2023-04-25T09:06:35;100680.54;;;5.75;49.51
64139;BME280;50435;43.700;-79.318;2023-04-25T09:09:05;100683.25;;;4.89;49.29
64139;BME280;50435;43.700;-79.318;2023-04-25T09:11:34;100684.20;;;5.26;49.35
64139;BME280;50435;43.700;-79.318;2023-04-25T09:14:20;100683.99;;;4.50;49.70
64139;BME280;50435;43.700;-79.318;2023-04-25T09:17:04;100683.26;;;5.46;49.50
64139;BME280;50435;43.700;-79.318;2023-04-25T09:19:34;100678.94;;;5.74;49.48
64139;BME280;50435;43.700;-79.318;2023-04-25T09:22:02;100680.06;;;4.60;49.71
64139;BME280;50435;43.700;-79.318;2023-04-25T09:24:33;100680.44;;;5.62;49.48
64139;BME280;50435;43.700;-79.318;2023-04-25T09:27:01;100681.78;;;4.65;50.13
64139;BME280;50435;43.700;-79.318;2023-04-25T09:29:30;100680.11;;;5.51;49.79
64139;BME280;50435;43.700;-79.318;2023-04-25T09:32:17;100685.38;;;3.91;49.56
64139;BME280;50435;43.700;-79.318;2023-04-25T09:34:46;100683.93;;;5.41;49.22
64139;BME280;50435;43.700;-79.318;2023-04-25T09:37:18;100685.65;;;5.17;49.31
64139;BME280;50435;43.700;-79.318;2023-04-25T09:39:46;100686.25;;;5.55;49.58
64139;BME280;50435;43.700;-79.318;2023-04-25T09:42:14;100689.53;;;4.96;49.74
64139;BME280;50435;43.700;-79.318;2023-04-25T09:44:43;100690.22;;;5.64;49.15
64139;BME280;50435;43.700;-79.318;2023-04-25T09:47:12;100690.73;;;5.27;49.00
64139;BME280;50435;43.700;-79.318;2023-04-25T09:49:41;100693.30;;;5.73;49.07
64139;BME280;50435;43.700;-79.318;2023-04-25T09:52:13;100692.28;;;5.31;48.89
64139;BME280;50435;43.700;-79.318;2023-04-25T09:54:41;100687.91;;;5.56;49.25
64139;BME280;50435;43.700;-79.318;2023-04-25T09:57:12;100691.24;;;4.95;49.52
64139;BME280;50435;43.700;-79.318;2023-04-25T09:59:43;100692.70;;;5.58;49.21
64139;BME280;50435;43.700;-79.318;2023-04-25T10:02:12;100694.36;;;4.69;50.12
64139;BME280;50435;43.700;-79.318;2023-04-25T10:04:41;100698.15;;;5.55;49.87
64139;BME280;50435;43.700;-79.318;2023-04-25T10:07:09;100703.55;;;4.53;49.89
64139;BME280;50435;43.700;-79.318;2023-04-25T10:09:38;100700.01;;;5.34;49.78
64139;BME280;50435;43.700;-79.318;2023-04-25T10:12:07;100700.16;;;4.76;49.89
64139;BME280;50435;43.700;-79.318;2023-04-25T10:14:35;100703.00;;;5.36;49.53
64139;BME280;50435;43.700;-79.318;2023-04-25T10:17:03;100704.31;;;5.02;49.19
64139;BME280;50435;43.700;-79.318;2023-04-25T10:19:31;100700.28;;;5.52;49.68
64139;BME280;50435;43.700;-79.318;2023-04-25T10:22:18;100698.54;;;3.78;49.78
64139;BME280;50435;43.700;-79.318;2023-04-25T10:24:47;100700.05;;;5.36;49.37
64139;BME280;50435;43.700;-79.318;2023-04-25T10:27:15;100700.23;;;4.96;49.16
64139;BME280;50435;43.700;-79.318;2023-04-25T10:29:43;100697.34;;;5.41;49.16
64139;BME280;50435;43.700;-79.318;2023-04-25T10:32:11;100700.39;;;4.80;49.31
64139;BME280;50435;43.700;-79.318;2023-04-25T10:34:43;100698.65;;;5.56;48.79
64139;BME280;50435;43.700;-79.318;2023-04-25T10:37:11;100702.17;;;5.37;49.11
64139;BME280;50435;43.700;-79.318;2023-04-25T10:39:40;100700.09;;;5.10;49.59
64139;BME280;50435;43.700;-79.318;2023-04-25T10:42:08;100699.29;;;4.63;49.67
64139;BME280;50435;43.700;-79.318;2023-04-25T10:44:38;100701.67;;;5.43;49.35
64139;BME280;50435;43.700;-79.318;2023-04-25T10:47:07;100699.09;;;4.59;49.59
64139;BME280;50435;43.700;-79.318;2023-04-25T10:49:36;100706.07;;;5.07;49.60
64139;BME280;50435;43.700;-79.318;2023-04-25T10:52:15;100708.95;;;3.99;49.77
64139;BME280;50435;43.700;-79.318;2023-04-25T10:54:46;100711.46;;;4.94;49.91
64139;BME280;50435;43.700;-79.318;2023-04-25T10:57:29;100713.82;;;4.69;49.72
64139;BME280;50435;43.700;-79.318;2023-04-25T11:00:00;100718.20;;;3.57;49.66
64139;BME280;50435;43.700;-79.318;2023-04-25T11:02:28;100718.44;;;4.88;49.89
64139;BME280;50435;43.700;-79.318;2023-04-25T11:04:56;100723.46;;;3.37;49.92
64139;BME280;50435;43.700;-79.318;2023-04-25T11:07:31;100724.63;;;4.99;49.50
64139;BME280;50435;43.700;-79.318;2023-04-25T11:10:02;100726.73;;;4.18;49.60
64139;BME280;50435;43.700;-79.318;2023-04-25T11:12:30;100729.55;;;4.81;49.96
64139;BME280;50435;43.700;-79.318;2023-04-25T11:14:59;100728.71;;;3.26;50.07
64139;BME280;50435;43.700;-79.318;2023-04-25T11:17:27;100731.67;;;4.91;50.11
64139;BME280;50435;43.700;-79.318;2023-04-25T11:19:55;100733.29;;;3.54;50.01
64139;BME280;50435;43.700;-79.318;2023-04-25T11:22:23;100732.45;;;4.78;49.92
64139;BME280;50435;43.700;-79.318;2023-04-25T11:24:50;100731.73;;;4.08;49.81
64139;BME280;50435;43.700;-79.318;2023-04-25T11:27:18;100732.02;;;4.73;50.00
64139;BME280;50435;43.700;-79.318;2023-04-25T11:29:46;100732.20;;;4.84;49.65
64139;BME280;50435;43.700;-79.318;2023-04-25T11:32:15;100735.03;;;4.40;49.57
64139;BME280;50435;43.700;-79.318;2023-04-25T11:34:44;100733.45;;;4.89;49.50
64139;BME280;50435;43.700;-79.318;2023-04-25T11:37:11;100732.11;;;4.41;49.65
64139;BME280;50435;43.700;-79.318;2023-04-25T11:39:43;100734.38;;;5.00;49.27
64139;BME280;50435;43.700;-79.318;2023-04-25T11:42:11;100729.40;;;4.74;48.91
64139;BME280;50435;43.700;-79.318;2023-04-25T11:44:39;100729.58;;;5.45;48.97
64139;BME280;50435;43.700;-79.318;2023-04-25T11:47:06;100730.79;;;4.73;49.00
64139;BME280;50435;43.700;-79.318;2023-04-25T11:49:35;100730.11;;;5.32;48.90
64139;BME280;50435;43.700;-79.318;2023-04-25T11:52:05;100730.38;;;4.64;48.65
64139;BME280;50435;43.700;-79.318;2023-04-25T11:54:35;100729.43;;;5.40;48.52
64139;BME280;50435;43.700;-79.318;2023-04-25T11:57:04;100728.45;;;4.96;48.52
64139;BME280;50435;43.700;-79.318;2023-04-25T11:59:31;100729.37;;;5.75;47.91
64139;BME280;50435;43.700;-79.318;2023-04-25T12:01:59;100728.02;;;4.07;48.37
64139;BME280;50435;43.700;-79.318;2023-04-25T12:04:30;100730.39;;;5.75;48.10
64139;BME280;50435;43.700;-79.318;2023-04-25T12:06:58;100731.40;;;4.07;48.33
64139;BME280;50435;43.700;-79.318;2023-04-25T12:09:29;100731.83;;;5.50;48.22
64139;BME280;50435;43.700;-79.318;2023-04-25T12:11:59;100736.84;;;4.74;47.74
64139;BME280;50435;43.700;-79.318;2023-04-25T12:14:29;100739.65;;;5.79;48.19
64139;BME280;50435;43.700;-79.318;2023-04-25T12:16:58;100740.68;;;6.01;48.37
64139;BME280;50435;43.700;-79.318;2023-04-25T12:19:31;100740.91;;;5.94;48.86
64139;BME280;50435;43.700;-79.318;2023-04-25T12:22:00;100737.72;;;3.82;49.50
64139;BME280;50435;43.700;-79.318;2023-04-25T12:24:28;100736.41;;;5.23;51.04
64139;BME280;50435;43.700;-79.318;2023-04-25T12:27:00;100738.26;;;5.42;51.57
64139;BME280;50435;43.700;-79.318;2023-04-25T12:29:29;100737.14;;;4.86;51.57
64139;BME280;50435;43.700;-79.318;2023-04-25T12:31:57;100733.28;;;3.85;50.24
64139;BME280;50435;43.700;-79.318;2023-04-25T12:34:25;100736.66;;;5.16;50.42
64139;BME280;50435;43.700;-79.318;2023-04-25T12:36:53;100734.82;;;4.72;49.47
64139;BME280;50435;43.700;-79.318;2023-04-25T12:39:23;100737.03;;;5.14;49.27
64139;BME280;50435;43.700;-79.318;2023-04-25T12:41:52;100737.15;;;4.70;49.52
64139;BME280;50435;43.700;-79.318;2023-04-25T12:44:19;100738.36;;;5.34;48.59